Time;durP1;ratioP1;P1;durP2;ratioP2;P2;SDS_P1;SDS_P2;PMS_P1;PMS_P2;Temp;Humidity;BMP_temperature;BMP_pressure;BME280_temperature;BME280_humidity;BME280_pressure;Samples;Min_cycle;Max_cycle;Signal;HPM_P1;HPM_P2
2022/04/12 00:00:51;;;;;;;4.20;3.27;;;9.20;62.70;9.30;96298.00;;;;4949383;28;20713;-84
2022/04/12 00:03:19;;;;;;;4.07;3.67;;;9.20;62.70;9.20;96292.00;;;;4948790;28;20220;-83
2022/04/12 00:05:48;;;;;;;4.77;4.37;;;9.20;62.80;9.20;96300.00;;;;4953511;29;20278;-83
2022/04/12 00:08:18;;;;;;;4.03;3.50;;;9.10;62.80;9.20;96304.00;;;;4956161;28;20684;-83
2022/04/12 00:10:46;;;;;;;3.87;3.47;;;9.10;62.90;9.10;96302.00;;;;4955736;28;20271;-83
2022/04/12 00:13:14;;;;;;;4.37;3.97;;;9.10;63.10;9.10;96298.00;;;;4994856;28;20207;-83
2022/04/12 00:15:41;;;;;;;3.70;3.40;;;9.10;63.20;9.10;96296.00;;;;4936313;28;20225;-83
2022/04/12 00:20:54;;;;;;;3.97;3.40;;;9.10;63.70;9.00;96298.00;;;;4956298;29;20579;-83
2022/04/12 00:23:22;;;;;;;4.67;3.37;;;9.00;63.70;9.00;96292.00;;;;4948718;29;20627;-83
2022/04/12 00:25:53;;;;;;;4.23;3.80;;;9.00;63.80;9.00;96287.00;;;;4955948;28;20254;-83
2022/04/12 00:28:21;;;;;;;3.70;3.40;;;8.90;63.80;9.00;96292.00;;;;4956563;29;20196;-83
2022/04/12 00:30:48;;;;;;;3.93;3.50;;;8.90;63.90;9.00;96288.00;;;;4956966;28;20215;-83
2022/04/12 00:33:16;;;;;;;4.57;3.43;;;8.90;64.00;9.00;96291.00;;;;4955712;29;20211;-83
2022/04/12 00:35:43;;;;;;;4.17;3.87;;;8.90;64.00;9.00;96281.00;;;;4933821;28;20216;-83
2022/04/12 00:38:22;;;;;;;3.77;3.47;;;8.90;64.00;9.00;96286.00;;;;4945305;28;20227;-83
2022/04/12 00:40:50;;;;;;;4.20;3.80;;;8.90;64.00;9.00;96288.00;;;;4954797;28;20208;-83
2022/04/12 00:43:19;;;;;;;4.13;3.73;;;8.90;65.00;8.90;96282.00;;;;4952825;28;20204;-83
2022/04/12 00:45:48;;;;;;;3.90;3.50;;;8.90;64.30;9.00;96281.00;;;;4953906;29;20232;-83
2022/04/12 00:48:15;;;;;;;3.90;3.50;;;8.90;64.30;9.00;96291.00;;;;4954451;29;20687;-83
2022/04/12 00:50:46;;;;;;;3.90;3.60;;;8.90;64.40;9.00;96285.00;;;;4954931;28;20207;-83
2022/04/12 00:53:16;;;;;;;4.73;4.03;;;8.90;64.50;9.00;96278.00;;;;4954593;29;20274;-83
2022/04/12 00:55:43;;;;;;;5.43;3.83;;;8.90;64.50;9.00;96283.00;;;;4954099;28;20220;-83
2022/04/12 00:58:11;;;;;;;4.30;3.53;;;8.90;64.70;8.90;96279.00;;;;4954332;28;20689;-83
2022/04/12 01:00:38;;;;;;;4.40;3.70;;;8.90;64.80;8.90;96274.00;;;;4954510;28;20207;-83
2022/04/12 01:03:06;;;;;;;4.80;4.00;;;8.90;64.80;8.90;96267.00;;;;4944563;28;20201;-83
2022/04/12 01:05:34;;;;;;;4.03;3.63;;;8.90;64.70;8.90;96269.00;;;;4967196;28;20222;-83
2022/04/12 01:08:02;;;;;;;3.83;3.43;;;8.90;64.70;8.90;96267.00;;;;4972872;28;20207;-83
2022/04/12 01:10:33;;;;;;;4.33;3.93;;;8.80;64.70;8.90;96268.00;;;;4972471;28;20234;-83
2022/04/12 01:13:02;;;;;;;3.97;3.57;;;8.90;64.80;8.90;96267.00;;;;4961029;28;20185;-83
2022/04/12 01:15:29;;;;;;;4.90;3.87;;;8.80;64.80;8.90;96265.00;;;;4953667;28;20232;-83
2022/04/12 01:17:57;;;;;;;4.40;4.00;;;8.80;64.70;8.90;96271.00;;;;4951982;28;20279;-83
2022/04/12 01:20:29;;;;;;;4.80;4.20;;;8.80;64.70;8.90;96270.00;;;;4953342;28;20201;-83
2022/04/12 01:23:08;;;;;;;4.93;4.23;;;8.80;64.80;8.80;96263.00;;;;4953198;29;20208;-83
2022/04/12 01:25:37;;;;;;;4.73;3.70;;;8.80;64.80;8.80;96268.00;;;;4952706;29;20235;-83
2022/04/12 01:28:07;;;;;;;4.80;4.30;;;8.80;64.70;8.80;96266.00;;;;4953638;28;20204;-84
2022/04/12 01:30:34;;;;;;;4.67;4.03;;;8.70;64.70;8.80;96268.00;;;;4952191;28;20259;-82
2022/04/12 01:33:02;;;;;;;4.37;3.97;;;8.70;64.70;8.80;96259.00;;;;4953803;28;20214;-83
2022/04/12 01:35:32;;;;;;;4.43;4.03;;;8.70;64.70;8.80;96259.00;;;;4934893;28;20673;-83
2022/04/12 01:38:04;;;;;;;5.70;4.53;;;8.70;64.60;8.80;96248.00;;;;4933572;28;20252;-83
2022/04/12 01:40:32;;;;;;;5.17;4.67;;;8.70;64.70;8.80;96252.00;;;;4953228;28;20231;-83
2022/04/12 01:43:00;;;;;;;5.53;4.33;;;8.70;64.70;8.80;96252.00;;;;4953763;28;20199;-83
2022/04/12 01:45:28;;;;;;;5.53;4.17;;;8.70;64.70;8.70;96245.00;;;;4953704;28;20716;-83
2022/04/12 01:47:55;;;;;;;4.93;4.40;;;8.60;64.60;8.70;96244.00;;;;4953418;28;20287;-83
2022/04/12 01:50:22;;;;;;;4.53;3.70;;;8.60;64.70;8.70;96247.00;;;;4954356;28;20247;-83
2022/04/12 01:52:50;;;;;;;4.93;4.20;;;8.60;64.80;8.70;96238.00;;;;4955717;28;20215;-83
2022/04/12 01:55:17;;;;;;;4.60;4.20;;;8.60;64.80;8.60;96233.00;;;;4952600;28;20302;-83
2022/04/12 01:57:45;;;;;;;7.47;4.70;;;8.50;64.90;8.60;96240.00;;;;4936688;28;20207;-83
2022/04/12 02:00:15;;;;;;;4.33;3.93;;;8.50;65.00;8.60;96238.00;;;;4952254;28;20204;-83
2022/04/12 02:02:42;;;;;;;4.30;3.93;;;8.50;65.00;8.50;96244.00;;;;4952398;28;20211;-83
2022/04/12 02:05:09;;;;;;;4.10;3.70;;;8.50;65.10;8.50;96248.00;;;;4951012;28;20247;-83
2022/04/12 02:07:37;;;;;;;4.53;4.07;;;8.40;65.10;8.50;96252.00;;;;4953750;29;20685;-83
2022/04/12 02:10:09;;;;;;;4.63;4.23;;;8.40;65.10;8.50;96253.00;;;;4935294;28;20220;-83
2022/04/12 02:12:37;;;;;;;4.83;3.87;;;8.40;65.20;8.50;96257.00;;;;4954737;28;20278;-83
2022/04/12 02:15:05;;;;;;;4.33;4.00;;;8.40;65.30;8.40;96251.00;;;;4946372;28;20311;-83
2022/04/12 02:17:33;;;;;;;5.20;4.10;;;8.40;65.50;8.40;96248.00;;;;4943714;28;20258;-83
2022/04/12 02:20:00;;;;;;;3.80;3.50;;;8.30;65.50;8.40;96258.00;;;;4955055;28;20215;-83
2022/04/12 02:22:28;;;;;;;4.93;3.73;;;8.30;65.60;8.40;96257.00;;;;4954658;28;20259;-83
2022/04/12 02:24:55;;;;;;;6.37;4.20;;;8.30;65.80;8.40;96255.00;;;;4951803;29;20734;-83
2022/04/12 02:27:22;;;;;;;5.03;4.17;;;8.30;65.90;8.40;96262.00;;;;4953173;28;20231;-83
2022/04/12 02:29:49;;;;;;;4.10;3.70;;;8.30;66.10;8.40;96256.00;;;;4953772;28;20306;-83
2022/04/12 02:32:16;;;;;;;4.43;4.03;;;8.30;66.10;8.40;96248.00;;;;4953744;28;20254;-83
2022/04/12 02:34:45;;;;;;;5.13;4.37;;;8.30;66.20;8.30;96250.00;;;;4953286;29;20673;-83
2022/04/12 02:37:12;;;;;;;5.43;4.20;;;8.30;66.30;8.30;96255.00;;;;4954112;29;20283;-83
2022/04/12 02:39:39;;;;;;;5.77;3.87;;;8.30;66.30;8.30;96247.00;;;;4954949;29;20239;-83
2022/04/12 02:42:07;;;;;;;4.10;3.70;;;8.60;66.50;8.30;96248.00;;;;4956718;28;20219;-83
2022/04/12 02:44:35;;;;;;;4.50;3.67;;;8.30;66.30;8.30;96252.00;;;;4956667;28;20627;-83
2022/04/12 02:47:02;;;;;;;5.20;4.30;;;8.20;66.40;8.20;96249.00;;;;4957155;29;20199;-83
2022/04/12 02:49:29;;;;;;;4.63;4.13;;;8.20;66.40;8.20;96256.00;;;;4957343;28;20792;-83
2022/04/12 02:51:58;;;;;;;5.93;4.57;;;8.30;66.50;8.20;96249.00;;;;4957382;28;20291;-83
2022/04/12 02:54:25;;;;;;;4.33;3.93;;;8.20;66.60;8.20;96262.00;;;;4956712;28;20305;-83
2022/04/12 02:56:52;;;;;;;4.33;3.93;;;8.20;66.70;8.20;96256.00;;;;4956847;28;20239;-83
2022/04/12 02:59:19;;;;;;;5.73;4.77;;;8.10;66.60;8.20;96254.00;;;;4956887;28;20266;-83
2022/04/12 03:01:46;;;;;;;4.77;3.97;;;8.20;66.70;8.20;96254.00;;;;4956701;28;20713;-83
2022/04/12 03:04:13;;;;;;;4.73;4.33;;;8.20;66.70;8.20;96246.00;;;;4957178;28;20207;-83
2022/04/12 03:06:40;;;;;;;4.73;4.30;;;8.10;66.70;8.20;96251.00;;;;4964262;28;20219;-83
2022/04/12 03:09:09;;;;;;;4.57;4.10;;;8.10;66.70;8.20;96242.00;;;;4955256;28;20207;-83
2022/04/12 03:11:39;;;;;;;4.60;4.17;;;8.10;66.80;8.10;96252.00;;;;4956664;28;20623;-83
2022/04/12 03:14:08;;;;;;;4.73;4.03;;;8.10;66.80;8.10;96244.00;;;;4955393;29;20193;-83
2022/04/12 03:16:35;;;;;;;4.97;4.47;;;8.10;66.80;8.10;96248.00;;;;4956404;28;20228;-83
2022/04/12 03:21:30;;;;;;;4.80;4.23;;;8.00;66.80;8.10;96240.00;;;;4952363;29;20610;-87
2022/04/12 03:23:57;;;;;;;6.43;4.23;;;8.00;66.80;8.00;96245.00;;;;4943723;28;20200;-87
2022/04/12 03:26:25;;;;;;;7.73;4.20;;;8.00;67.00;8.00;96249.00;;;;4972563;28;20223;-87
2022/04/12 03:28:52;;;;;;;5.43;4.40;;;8.00;67.00;8.00;96245.00;;;;4962783;28;20195;-87
2022/04/12 03:31:21;;;;;;;4.27;3.77;;;8.00;66.90;8.00;96243.00;;;;4961711;28;20227;-87
2022/04/12 03:33:48;;;;;;;4.17;3.80;;;8.00;67.00;8.00;96242.00;;;;4960952;28;20206;-87
2022/04/12 03:36:16;;;;;;;4.83;3.90;;;7.90;66.90;8.00;96237.00;;;;4999245;28;20225;-87
2022/04/12 03:38:48;;;;;;;4.20;3.80;;;7.90;67.00;8.00;96236.00;;;;4986700;28;20257;-87
2022/04/12 03:41:18;;;;;;;6.53;4.47;;;7.90;67.10;7.90;96244.00;;;;4970745;28;20214;-87
2022/04/12 03:43:47;;;;;;;5.10;4.00;;;7.90;67.20;7.90;96244.00;;;;4953410;28;20204;-87
2022/04/12 03:46:14;;;;;;;4.97;3.90;;;7.90;67.20;7.90;96250.00;;;;4953495;28;20224;-87
2022/04/12 03:48:41;;;;;;;5.50;4.27;;;7.90;67.20;7.90;96240.00;;;;4959993;28;20202;-87
2022/04/12 03:51:08;;;;;;;7.80;4.30;;;7.90;67.30;7.90;96252.00;;;;4972472;28;20601;-87
2022/04/12 03:53:36;;;;;;;4.20;3.90;;;7.80;67.30;7.90;96247.00;;;;4960399;28;20206;-87
2022/04/12 03:56:07;;;;;;;5.50;4.33;;;7.80;67.40;7.90;96244.00;;;;4953337;28;20235;-87
2022/04/12 03:58:34;;;;;;;5.20;4.50;;;7.80;67.40;7.90;96246.00;;;;4957583;28;20568;-87
2022/04/12 04:01:03;;;;;;;4.80;3.73;;;7.80;67.40;7.90;96243.00;;;;4971592;28;20203;-87
2022/04/12 04:03:35;;;;;;;4.73;4.23;;;7.80;67.40;7.80;96246.00;;;;5000583;28;20193;-87
2022/04/12 04:06:03;;;;;;;4.80;4.37;;;7.80;67.40;7.80;96246.00;;;;4946650;29;20269;-87
2022/04/12 04:08:30;;;;;;;4.60;4.20;;;7.80;67.30;7.80;96244.00;;;;4956063;28;20211;-87
2022/04/12 04:10:57;;;;;;;4.80;4.40;;;7.80;67.40;7.80;96238.00;;;;4953047;28;20222;-87
2022/04/12 04:13:26;;;;;;;5.20;3.97;;;7.80;67.40;7.80;96246.00;;;;4953440;28;20208;-87
2022/04/12 04:15:53;;;;;;;5.10;4.40;;;7.70;67.40;7.70;96248.00;;;;4959349;28;20226;-87
2022/04/12 04:18:22;;;;;;;4.63;4.23;;;7.70;67.50;7.80;96250.00;;;;4955017;28;20566;-87
2022/04/12 04:20:49;;;;;;;5.83;4.40;;;7.70;67.50;7.70;96246.00;;;;4972226;28;20207;-87
2022/04/12 04:23:16;;;;;;;5.17;4.23;;;7.70;67.50;7.70;96246.00;;;;4963681;28;20215;-87
2022/04/12 04:25:43;;;;;;;4.80;4.03;;;7.70;67.50;7.70;96251.00;;;;4955049;28;20307;-87
2022/04/12 04:28:12;;;;;;;6.23;4.60;;;7.60;67.40;7.60;96248.00;;;;4971491;28;20195;-87
2022/04/12 04:30:44;;;;;;;8.20;4.40;;;7.60;68.20;7.60;96251.00;;;;4952870;29;20235;-87
2022/04/12 04:33:11;;;;;;;6.07;4.77;;;7.60;67.50;7.60;96248.00;;;;4952676;28;20208;-87
2022/04/12 04:35:40;;;;;;;4.93;4.27;;;7.60;67.50;7.60;96255.00;;;;4955735;28;20252;-88
2022/04/12 04:38:07;;;;;;;10.20;4.27;;;7.60;67.60;7.60;96262.00;;;;4956419;28;20192;-87
2022/04/12 04:40:34;;;;;;;4.40;4.00;;;7.50;67.60;7.60;96262.00;;;;4971520;28;20286;-87
2022/04/12 04:43:02;;;;;;;4.87;4.27;;;7.50;67.60;7.60;96265.00;;;;4968729;28;20210;-87
2022/04/12 04:45:29;;;;;;;5.53;4.70;;;7.60;67.80;7.60;96266.00;;;;4952696;28;20219;-87
2022/04/12 04:47:59;;;;;;;4.63;4.23;;;7.50;68.50;7.60;96267.00;;;;4954550;28;20204;-87
2022/04/12 04:50:29;;;;;;;5.90;4.33;;;7.50;67.90;7.60;96268.00;;;;4971505;28;20219;-88
2022/04/12 04:52:59;;;;;;;6.70;4.47;;;7.50;67.90;7.60;96267.00;;;;4952382;28;20212;-87
2022/04/12 04:55:26;;;;;;;5.50;4.77;;;7.50;68.00;7.60;96268.00;;;;4961443;28;20221;-87
2022/04/12 04:57:56;;;;;;;4.57;4.17;;;7.50;68.10;7.70;96262.00;;;;4959828;28;20207;-87
2022/04/12 05:00:25;;;;;;;4.97;4.50;;;7.50;68.20;7.70;96258.00;;;;4967764;28;20215;-87
2022/04/12 05:02:55;;;;;;;4.90;4.20;;;7.50;68.30;7.70;96257.00;;;;4960797;28;20457;-88
2022/04/12 05:05:23;;;;;;;5.43;4.27;;;7.50;68.40;7.70;96256.00;;;;4951794;28;20223;-88
2022/04/12 05:07:52;;;;;;;4.50;4.10;;;7.50;68.50;7.70;96263.00;;;;4962494;28;20614;-88
2022/04/12 05:10:23;;;;;;;4.87;4.33;;;7.50;68.50;7.70;96258.00;;;;4951723;29;20708;-89
2022/04/12 05:12:50;;;;;;;4.70;4.23;;;7.50;68.60;7.80;96268.00;;;;4982465;28;20198;-87
2022/04/12 05:15:18;;;;;;;4.80;4.17;;;7.50;68.70;7.80;96267.00;;;;4970737;28;20215;-87
2022/04/12 05:17:51;;;;;;;4.83;4.13;;;7.60;68.70;7.80;96265.00;;;;4961681;28;20196;-87
2022/04/12 05:20:19;;;;;;;5.13;4.63;;;7.60;68.80;7.80;96270.00;;;;4933235;28;20228;-88
2022/04/12 05:22:46;;;;;;;4.80;4.33;;;7.60;68.90;7.90;96274.00;;;;4948159;28;20200;-87
2022/04/12 05:25:13;;;;;;;6.33;4.57;;;7.60;68.90;7.90;96278.00;;;;4951634;28;20226;-88
2022/04/12 05:27:43;;;;;;;4.40;4.00;;;7.70;69.00;7.90;96280.00;;;;4960132;28;20199;-87
2022/04/12 05:30:13;;;;;;;4.33;3.67;;;7.70;69.00;8.00;96277.00;;;;4952025;28;20244;-87
2022/04/12 05:32:41;;;;;;;5.67;3.97;;;7.70;69.00;8.00;96283.00;;;;4958104;28;20203;-87
2022/04/12 05:35:10;;;;;;;4.10;3.70;;;7.80;69.20;8.00;96282.00;;;;4962302;28;20573;-87
2022/04/12 05:37:46;;;;;;;4.27;3.77;;;7.80;69.30;8.10;96282.00;;;;4963686;28;20198;-88
2022/04/12 05:40:15;;;;;;;101.63;54.40;;;7.80;69.20;8.10;96275.00;;;;4951900;28;20206;-87
2022/04/12 05:42:43;;;;;;;10.70;7.20;;;7.90;69.20;8.20;96288.00;;;;4958748;28;20574;-88
2022/04/12 05:45:12;;;;;;;4.77;4.33;;;7.90;69.30;8.20;96289.00;;;;4970548;28;20703;-88
2022/04/12 05:47:49;;;;;;;3.70;3.40;;;8.00;69.20;8.30;96295.00;;;;4964158;28;20199;-89
2022/04/12 05:50:17;;;;;;;5.93;3.30;;;8.00;69.20;8.40;96290.00;;;;4941353;28;20219;-88
2022/04/12 05:52:45;;;;;;;3.70;3.40;;;8.10;69.30;8.50;96292.00;;;;4971394;28;20549;-88
2022/04/12 05:55:15;;;;;;;3.67;3.37;;;8.20;69.40;8.50;96292.00;;;;4970349;28;20246;-89
2022/04/12 05:57:51;;;;;;;3.50;3.13;;;8.20;69.40;8.60;96297.00;;;;4970720;28;20273;-88
2022/04/12 06:00:20;;;;;;;3.70;3.40;;;8.40;69.30;8.70;96299.00;;;;4967198;28;20211;-88
2022/04/12 06:02:48;;;;;;;4.07;3.30;;;8.40;69.20;8.80;96292.00;;;;4951501;29;20211;-88
2022/04/12 06:05:15;;;;;;;5.77;3.20;;;8.50;69.20;8.90;96296.00;;;;4968915;28;20590;-89
2022/04/12 06:07:43;;;;;;;3.13;2.93;;;8.50;69.10;8.90;96300.00;;;;4970662;28;20205;-87
2022/04/12 06:10:12;;;;;;;3.73;3.30;;;8.60;69.10;9.00;96301.00;;;;4952682;28;20223;-87
2022/04/12 06:12:40;;;;;;;3.13;2.83;;;8.70;69.00;9.10;96309.00;;;;5021835;28;20189;-88
2022/04/12 06:15:10;;;;;;;3.40;3.10;;;8.80;69.00;9.20;96307.00;;;;4960278;28;20784;-88
2022/04/12 06:17:38;;;;;;;3.60;3.30;;;8.80;68.90;9.20;96311.00;;;;4963318;28;20200;-89
2022/04/12 06:20:09;;;;;;;4.37;3.27;;;8.90;68.80;9.30;96304.00;;;;4964171;28;20203;-88
2022/04/12 06:22:38;;;;;;;3.30;3.00;;;9.00;68.60;9.40;96304.00;;;;4959853;28;20196;-88
2022/04/12 06:25:07;;;;;;;3.50;3.20;;;9.10;68.50;9.50;96303.00;;;;4966855;28;20219;-88
2022/04/12 06:27:36;;;;;;;3.17;2.97;;;9.10;68.40;9.50;96297.00;;;;5012984;28;20196;-88
2022/04/12 06:30:10;;;;;;;3.50;3.20;;;9.20;68.40;9.60;96300.00;;;;4957269;29;20780;-88
2022/04/12 06:32:38;;;;;;;4.03;3.10;;;9.30;68.20;9.70;96291.00;;;;4971066;28;20203;-88
2022/04/12 06:35:09;;;;;;;4.27;3.40;;;9.40;68.20;9.80;96292.00;;;;4966848;28;20684;-88
2022/04/12 06:37:36;;;;;;;3.00;2.80;;;9.40;68.30;9.90;96304.00;;;;4971918;28;20210;-88
2022/04/12 06:40:08;;;;;;;3.07;2.77;;;9.50;68.20;10.00;96309.00;;;;4987900;28;20244;-88
2022/04/12 06:42:35;;;;;;;3.53;3.20;;;9.60;68.10;10.10;96312.00;;;;4957615;28;20196;-87
2022/04/12 06:45:04;;;;;;;3.50;3.13;;;9.70;68.20;10.20;96317.00;;;;4963745;28;20230;-88
2022/04/12 06:47:33;;;;;;;3.30;3.00;;;9.80;68.10;10.30;96317.00;;;;4961052;28;20192;-88
2022/04/12 06:50:00;;;;;;;3.97;3.10;;;9.90;68.00;10.30;96319.00;;;;4963709;28;20199;-87
2022/04/12 06:52:28;;;;;;;3.13;2.87;;;9.90;67.80;10.40;96317.00;;;;4969822;28;20196;-88
2022/04/12 06:54:55;;;;;;;3.23;2.93;;;10.00;67.60;10.50;96312.00;;;;4946337;28;20307;-89
2022/04/12 06:57:22;;;;;;;3.60;3.30;;;10.10;68.40;10.70;96309.00;;;;4960832;28;20214;-88
2022/04/12 06:59:51;;;;;;;3.40;3.10;;;10.20;67.60;10.70;96303.00;;;;4976165;28;20199;-88
2022/04/12 07:02:18;;;;;;;3.83;3.17;;;10.30;67.50;10.80;96306.00;;;;4966892;28;20218;-88
2022/04/12 07:04:46;;;;;;;3.57;2.70;;;10.40;68.30;10.90;96306.00;;;;4964826;28;20306;-86
2022/04/12 07:07:13;;;;;;;3.97;3.20;;;10.50;67.60;11.00;96316.00;;;;4975962;28;20195;-88
2022/04/12 07:09:41;;;;;;;3.23;3.03;;;10.60;67.50;11.10;96314.00;;;;4965729;28;20207;-88
2022/04/12 07:12:09;;;;;;;3.30;3.00;;;10.70;67.50;11.20;96314.00;;;;4968615;28;20692;-87
2022/04/12 07:14:36;;;;;;;3.70;3.33;;;10.80;67.50;11.30;96313.00;;;;4971118;28;20226;-88
2022/04/12 07:17:05;;;;;;;3.10;2.80;;;10.90;67.50;11.40;96322.00;;;;4971455;28;20207;-88
2022/04/12 07:19:32;;;;;;;3.03;2.83;;;11.00;67.50;11.50;96326.00;;;;4969417;28;20297;-87
2022/04/12 07:22:01;;;;;;;3.73;3.37;;;11.10;67.70;11.70;96315.00;;;;4970065;28;20227;-89
2022/04/12 07:24:28;;;;;;;3.20;2.90;;;11.20;67.80;11.80;96320.00;;;;4962404;28;20310;-87
2022/04/12 07:26:55;;;;;;;2.90;2.70;;;11.30;67.70;12.00;96321.00;;;;4969918;28;20200;-88
2022/04/12 07:29:22;;;;;;;4.93;2.67;;;11.50;67.80;12.20;96329.00;;;;4966334;28;20200;-88
2022/04/12 07:31:49;;;;;;;3.20;2.90;;;11.70;67.90;12.40;96341.00;;;;4949289;28;20224;-86
2022/04/12 07:34:16;;;;;;;2.93;2.47;;;11.80;67.90;12.60;96344.00;;;;4970076;28;20204;-87
2022/04/12 07:36:47;;;;;;;3.27;2.73;;;12.00;67.90;12.80;96348.00;;;;4972702;28;20191;-88
2022/04/12 07:39:15;;;;;;;3.10;2.70;;;12.10;67.70;13.00;96348.00;;;;4958913;28;20545;-88
2022/04/12 07:41:43;;;;;;;2.50;2.40;;;12.40;68.00;13.30;96356.00;;;;4964070;28;20222;-88
2022/04/12 07:44:10;;;;;;;3.17;2.90;;;12.50;67.80;13.50;96359.00;;;;4953431;28;20192;-88
2022/04/12 07:46:37;;;;;;;3.30;2.53;;;12.70;67.50;13.70;96352.00;;;;4959560;28;20208;-87
2022/04/12 07:49:04;;;;;;;3.73;2.57;;;12.90;67.30;13.90;96358.00;;;;4968890;28;20283;-88
2022/04/12 07:51:31;;;;;;;2.43;2.23;;;13.00;67.20;14.20;96351.00;;;;4961084;28;20219;-87
2022/04/12 07:53:58;;;;;;;2.70;2.20;;;13.40;67.30;14.40;96358.00;;;;4959905;28;20627;-88
2022/04/12 07:56:26;;;;;;;2.73;2.50;;;13.60;67.20;14.60;96339.00;;;;4972182;28;20227;-88
2022/04/12 07:58:53;;;;;;;2.50;1.70;;;13.80;66.10;14.90;96352.00;;;;4970922;28;20195;-88
2022/04/12 08:01:20;;;;;;;3.10;2.00;;;14.00;66.10;15.10;96347.00;;;;4955210;28;20561;-88
2022/04/12 08:03:48;;;;;;;2.93;2.00;;;14.20;65.30;15.30;96350.00;;;;4957368;28;20205;-88
2022/04/12 08:06:15;;;;;;;2.37;2.17;;;14.40;65.40;15.60;96354.00;;;;4953083;28;20685;-88
2022/04/12 08:08:43;;;;;;;2.07;1.87;;;14.60;65.40;15.80;96350.00;;;;4964984;28;20204;-87
2022/04/12 08:11:10;;;;;;;2.87;1.93;;;14.80;65.10;16.10;96344.00;;;;4961478;28;20220;-87
2022/04/12 08:13:39;;;;;;;2.97;2.13;;;15.10;65.30;16.40;96349.00;;;;4978399;28;20203;-88
2022/04/12 08:16:08;;;;;;;1.60;1.50;;;15.30;65.00;16.70;96344.00;;;;4971917;28;20683;-88
2022/04/12 08:18:35;;;;;;;9.40;2.23;;;15.50;64.90;17.00;96344.00;;;;4960460;28;20204;-88
2022/04/12 08:21:02;;;;;;;1.83;1.73;;;15.70;64.50;17.30;96342.00;;;;4964043;28;20738;-89
2022/04/12 08:23:29;;;;;;;2.50;1.93;;;16.00;64.30;17.60;96340.00;;;;4943313;29;20276;-88
2022/04/12 08:25:56;;;;;;;1.90;1.80;;;16.30;63.30;17.80;96345.00;;;;4952161;28;20220;-88
2022/04/12 08:28:23;;;;;;;2.00;1.90;;;16.50;63.50;18.10;96340.00;;;;4967807;28;20649;-87
2022/04/12 08:30:52;;;;;;;2.30;2.10;;;16.70;63.00;18.50;96344.00;;;;4961479;28;20203;-88
2022/04/12 08:33:19;;;;;;;1.63;1.53;;;17.00;61.30;18.90;96355.00;;;;4952866;29;20212;-88
2022/04/12 08:35:46;;;;;;;1.83;1.50;;;17.30;62.20;19.30;96353.00;;;;4964674;28;20219;-88
2022/04/12 08:38:13;;;;;;;2.03;1.50;;;17.60;62.30;19.70;96347.00;;;;4971283;28;20199;-88
2022/04/12 08:40:42;;;;;;;1.80;1.50;;;17.90;61.30;20.20;96353.00;;;;4960011;28;20664;-88
2022/04/12 08:43:11;;;;;;;1.73;1.63;;;18.10;60.90;20.60;96351.00;;;;4954998;28;20224;-88
2022/04/12 08:45:45;;;;;;;1.57;1.47;;;18.50;61.00;21.00;96346.00;;;;4967234;28;20603;-88
2022/04/12 08:48:15;;;;;;;2.83;1.77;;;18.90;61.10;21.40;96352.00;;;;4958981;28;20207;-87
2022/04/12 08:50:43;;;;;;;2.00;1.90;;;19.30;60.10;21.80;96353.00;;;;4957143;28;20293;-86
2022/04/12 08:53:12;;;;;;;2.90;1.83;;;19.70;59.80;22.30;96361.00;;;;4945973;28;20208;-88
2022/04/12 08:55:40;;;;;;;1.60;1.50;;;20.20;58.80;22.70;96352.00;;;;4948227;28;20219;-88
2022/04/12 08:58:08;;;;;;;1.53;1.43;;;20.70;58.90;23.00;96358.00;;;;4953485;28;20196;-88
2022/04/12 09:00:35;;;;;;;7.20;1.90;;;21.20;58.50;23.40;96347.00;;;;4960502;28;20549;-86
2022/04/12 09:03:03;;;;;;;1.53;1.43;;;21.70;57.20;23.80;96354.00;;;;4959446;28;20728;-87
2022/04/12 09:05:33;;;;;;;2.10;1.40;;;22.10;56.60;24.10;96349.00;;;;4958991;28;20300;-88
2022/04/12 09:08:00;;;;;;;3.37;1.50;;;22.50;55.30;24.40;96347.00;;;;4956196;28;20286;-88
2022/04/12 09:10:35;;;;;;;1.40;1.20;;;22.90;54.60;24.70;96353.00;;;;4962109;28;20209;-88
2022/04/12 09:13:12;;;;;;;2.40;1.70;;;23.30;54.00;25.00;96350.00;;;;5041005;28;20219;-87
2022/04/12 09:15:44;;;;;;;1.70;1.37;;;23.60;52.30;25.30;96362.00;;;;4976861;28;20230;-87
2022/04/12 09:18:11;;;;;;;2.30;1.10;;;23.90;53.00;25.50;96357.00;;;;4955299;28;20493;-88
2022/04/12 09:20:43;;;;;;;1.50;1.20;;;24.30;52.60;25.70;96361.00;;;;4971257;28;20210;-87
2022/04/12 09:23:16;;;;;;;0.90;0.90;;;24.60;50.50;26.00;96359.00;;;;4965727;28;20211;-87
2022/04/12 09:25:54;;;;;;;1.20;0.80;;;25.00;49.80;26.20;96360.00;;;;4958776;28;20220;-86
2022/04/12 09:28:21;;;;;;;1.10;1.00;;;25.30;48.70;26.40;96354.00;;;;4951732;29;20254;-86
2022/04/12 09:30:53;;;;;;;1.73;1.20;;;25.70;50.10;26.60;96357.00;;;;4956852;28;20199;-87
2022/04/12 09:33:36;;;;;;;1.30;0.77;;;26.10;49.40;26.80;96350.00;;;;4962991;28;20211;-84
2022/04/12 09:36:06;;;;;;;1.50;0.90;;;26.50;47.40;27.00;96349.00;;;;4952647;28;20219;-85
2022/04/12 09:38:35;;;;;;;1.48;0.93;;;26.90;48.60;27.10;96352.00;;;;4951677;29;20215;-84
2022/04/12 09:41:29;;;;;;;1.02;0.90;;;27.20;47.80;27.20;96355.00;;;;4963196;28;20227;-85
2022/04/12 09:44:07;;;;;;;1.10;1.10;;;27.50;46.10;27.30;96356.00;;;;4991102;28;20207;-85
2022/04/12 09:46:36;;;;;;;3.72;1.42;;;27.70;45.10;27.40;96355.00;;;;4955680;28;20207;-85
2022/04/12 09:49:04;;;;;;;1.65;0.70;;;27.90;45.80;27.50;96350.00;;;;4959341;28;20195;-84
2022/04/12 09:51:36;;;;;;;1.50;0.75;;;28.00;45.80;27.60;96350.00;;;;4951091;28;20224;-85
2022/04/12 09:54:06;;;;;;;1.33;0.93;;;28.20;44.50;27.60;96346.00;;;;4955446;28;20622;-85
2022/04/12 09:56:34;;;;;;;1.63;0.70;;;28.30;44.40;27.50;96341.00;;;;4970901;28;20203;-85
2022/04/12 09:59:06;;;;;;;0.80;0.80;;;28.30;43.80;27.50;96348.00;;;;4957814;28;20279;-85
2022/04/12 10:01:39;;;;;;;0.50;0.50;;;28.30;43.30;27.50;96344.00;;;;4954536;28;20204;-84
2022/04/12 10:04:09;;;;;;;2.30;0.93;;;28.40;43.70;27.50;96331.00;;;;4963084;28;20208;-84
2022/04/12 10:06:41;;;;;;;0.60;0.60;;;28.40;42.70;27.50;96325.00;;;;4970756;28;20196;-83
2022/04/12 10:09:13;;;;;;;0.88;0.75;;;28.40;41.50;27.50;96327.00;;;;4958666;28;20614;-83
2022/04/12 10:11:40;;;;;;;0.98;0.85;;;28.40;42.80;27.50;96323.00;;;;4993822;28;20716;-81
2022/04/12 10:14:10;;;;;;;1.30;0.77;;;28.40;42.90;27.50;96315.00;;;;4989960;28;20196;-81
2022/04/12 10:16:40;;;;;;;1.65;0.80;;;28.40;42.50;27.50;96314.00;;;;4954295;28;20685;-82
2022/04/12 10:19:08;;;;;;;0.82;0.80;;;28.30;40.70;27.40;96311.00;;;;4959539;28;20200;-81
2022/04/12 10:21:38;;;;;;;1.88;0.77;;;28.30;41.60;27.40;96313.00;;;;4974356;28;20203;-81
2022/04/12 10:24:08;;;;;;;1.85;1.10;;;28.30;42.00;27.40;96304.00;;;;4972589;28;20191;-81
2022/04/12 10:26:35;;;;;;;1.73;0.82;;;28.20;41.80;27.40;96295.00;;;;4956151;28;20200;-81
2022/04/12 10:29:07;;;;;;;2.03;0.60;;;28.20;42.00;27.30;96304.00;;;;4972662;28;20239;-81
2022/04/12 10:31:34;;;;;;;0.63;0.63;;;28.20;41.40;27.20;96301.00;;;;4966069;28;20234;-81
2022/04/12 10:34:09;;;;;;;2.88;1.05;;;28.10;40.90;27.10;96296.00;;;;4954145;28;20557;-80
2022/04/12 10:37:04;;;;;;;0.93;0.70;;;27.90;39.30;26.90;96298.00;;;;4973638;28;20226;-80
2022/04/12 10:39:35;;;;;;;1.80;1.02;;;27.80;39.00;26.80;96298.00;;;;4971904;28;20195;-80
2022/04/12 10:42:07;;;;;;;1.27;0.73;;;27.60;40.60;26.80;96291.00;;;;4963205;28;20202;-80
2022/04/12 10:44:43;;;;;;;1.07;0.93;;;27.50;41.20;26.70;96287.00;;;;4974764;28;20230;-81
2022/04/12 10:47:27;;;;;;;0.73;0.73;;;27.40;40.90;26.60;96281.00;;;;4965021;28;20272;-80
2022/04/12 10:49:58;;;;;;;0.60;0.60;;;27.20;41.20;26.50;96286.00;;;;4966568;28;20254;-81
2022/04/12 10:52:38;;;;;;;0.73;0.70;;;27.10;41.40;26.40;96279.00;;;;4968395;28;20215;-80
2022/04/12 10:55:08;;;;;;;0.97;0.90;;;26.80;40.40;26.40;96277.00;;;;4944703;28;20216;-80
2022/04/12 10:57:36;;;;;;;1.07;0.97;;;26.70;41.40;26.20;96282.00;;;;4956122;28;20589;-80
2022/04/12 11:00:09;;;;;;;1.80;0.80;;;26.50;41.40;26.10;96271.00;;;;4955354;28;20207;-80
2022/04/12 11:02:44;;;;;;;0.70;0.70;;;26.30;40.60;26.00;96270.00;;;;4957670;28;20211;-81
2022/04/12 11:06:05;;;;;;;0.60;0.60;;;26.10;41.10;25.80;96263.00;;;;4963544;28;20218;-80
2022/04/12 11:08:51;;;;;;;1.53;0.90;;;25.90;41.30;25.60;96268.00;;;;4970367;28;20227;-81
2022/04/12 11:11:27;;;;;;;1.70;1.33;;;25.60;41.50;25.40;96260.00;;;;4984027;28;20204;-81
2022/04/12 11:13:56;;;;;;;1.47;0.80;;;25.40;41.90;25.20;96255.00;;;;5061605;28;20196;-81
2022/04/12 11:16:27;;;;;;;1.20;1.10;;;25.10;42.60;25.10;96255.00;;;;4985910;28;20219;-80